createdAt,value
2023-02-27T00:01:29.336Z,-1.26
2023-02-27T00:08:12.565Z,-1.26
2023-02-27T00:14:55.146Z,-1.27
2023-02-27T00:21:37.978Z,-1.28
2023-02-27T00:28:20.691Z,-1.35
2023-02-27T00:35:06.158Z,-1.38
2023-02-27T00:41:48.455Z,-1.43
2023-02-27T00:48:30.967Z,-1.49
2023-02-27T00:55:13.420Z,-1.60
2023-02-27T01:01:56.461Z,-1.61
2023-02-27T01:08:38.852Z,-1.55
2023-02-27T01:15:21.623Z,-1.51
2023-02-27T01:22:04.013Z,-1.48
2023-02-27T01:28:46.649Z,-1.51
2023-02-27T01:35:28.894Z,-1.62
2023-02-27T01:42:27.861Z,-1.73
2023-02-27T01:49:33.460Z,-1.78
2023-02-27T01:56:25.376Z,-1.78
2023-02-27T02:03:35.983Z,-1.76
2023-02-27T02:10:19.531Z,-1.76
2023-02-27T02:17:48.819Z,-1.80
2023-02-27T02:24:55.901Z,-1.85
2023-02-27T02:32:25.914Z,-1.86
2023-02-27T02:39:22.419Z,-1.84
2023-02-27T02:46:33.311Z,-1.83
2023-02-27T02:53:48.238Z,-1.83
2023-02-27T03:00:42.064Z,-1.81
2023-02-27T03:07:38.737Z,-1.77
2023-02-27T03:14:50.075Z,-1.72
2023-02-27T03:21:56.801Z,-1.73
2023-02-27T03:28:51.375Z,-1.69
2023-02-27T03:36:19.658Z,-1.71
2023-02-27T03:43:40.990Z,-1.69
2023-02-27T03:50:24.761Z,-1.68
2023-02-27T03:57:09.006Z,-1.65
2023-02-27T04:04:03.144Z,-1.65
2023-02-27T04:11:30.321Z,-1.63
2023-02-27T04:18:34.526Z,-1.62
2023-02-27T04:25:33.494Z,-1.64
2023-02-27T04:32:38.503Z,-1.65
2023-02-27T04:39:34.460Z,-1.61
2023-02-27T04:46:21.104Z,-1.52
2023-02-27T04:53:18.092Z,-1.46
2023-02-27T05:00:06.275Z,-1.45
2023-02-27T05:06:51.713Z,-1.42
2023-02-27T05:13:43.758Z,-1.41
2023-02-27T05:20:35.411Z,-1.43
2023-02-27T05:27:29.535Z,-1.47
2023-02-27T05:34:23.183Z,-1.47
2023-02-27T05:41:22.551Z,-1.49
2023-02-27T05:48:18.480Z,-1.51
2023-02-27T05:55:11.986Z,-1.52
2023-02-27T06:01:56.223Z,-1.51
2023-02-27T06:08:38.966Z,-1.51
2023-02-27T06:15:21.363Z,-1.50
2023-02-27T06:22:03.723Z,-1.52
2023-02-27T06:28:46.099Z,-1.52
2023-02-27T06:35:29.907Z,-1.54
2023-02-27T06:42:12.530Z,-1.53
2023-02-27T06:48:54.986Z,-1.48
2023-02-27T06:55:39.678Z,-1.37
2023-02-27T07:02:24.033Z,-1.26
2023-02-27T07:09:07.114Z,-1.20
2023-02-27T07:15:52.355Z,-1.09
2023-02-27T07:22:35.126Z,-1.00
2023-02-27T07:29:17.971Z,-0.92
2023-02-27T07:36:00.446Z,-0.82
2023-02-27T07:42:47.524Z,-0.73
2023-02-27T07:49:29.942Z,-0.61
2023-02-27T07:56:12.283Z,-0.46
2023-02-27T08:02:54.606Z,-0.26
2023-02-27T08:09:39.923Z,-0.03
2023-02-27T08:16:22.347Z,0.15
2023-02-27T08:23:04.891Z,0.33
2023-02-27T08:29:47.404Z,0.71
2023-02-27T08:36:30.083Z,1.06
2023-02-27T08:43:13.129Z,1.30
2023-02-27T08:49:56.949Z,1.51
2023-02-27T08:56:39.768Z,1.69
2023-02-27T09:03:22.514Z,1.84
2023-02-27T09:10:07.343Z,1.99
2023-02-27T09:16:49.999Z,1.99
2023-02-27T09:23:32.491Z,2.03
2023-02-27T09:30:15.326Z,2.17
2023-02-27T09:37:01.800Z,2.19
2023-02-27T09:43:49.548Z,2.28
2023-02-27T09:50:45.091Z,2.38
2023-02-27T09:57:27.491Z,2.44
2023-02-27T10:04:31.989Z,2.44
2023-02-27T10:11:24.498Z,2.49
2023-02-27T10:18:28.264Z,2.54
2023-02-27T10:25:30.429Z,2.70
2023-02-27T10:32:35.917Z,2.59
2023-02-27T10:39:20.992Z,2.44
2023-02-27T10:46:12.383Z,2.39
2023-02-27T10:53:02.504Z,2.38
2023-02-27T11:00:23.900Z,2.44
2023-02-27T11:07:12.162Z,2.60
2023-02-27T11:13:56.131Z,2.81
2023-02-27T11:20:43.521Z,2.96
2023-02-27T11:27:30.821Z,3.04
2023-02-27T11:34:32.287Z,3.04
2023-02-27T11:41:15.037Z,2.98
2023-02-27T11:48:25.442Z,3.06
2023-02-27T11:55:18.228Z,3.00
2023-02-27T12:02:23.028Z,3.03
2023-02-27T12:09:38.701Z,2.99
2023-02-27T12:17:02.686Z,2.99
2023-02-27T12:24:11.004Z,3.20
2023-02-27T12:31:35.322Z,3.38
2023-02-27T12:38:20.117Z,3.34
2023-02-27T12:45:21.209Z,3.25
2023-02-27T12:52:24.671Z,3.25
2023-02-27T12:59:37.263Z,3.33
2023-02-27T13:06:48.068Z,3.30
2023-02-27T13:13:49.322Z,3.62
2023-02-27T13:20:50.161Z,3.93
2023-02-27T13:27:43.594Z,4.20
2023-02-27T13:34:39.629Z,4.47
2023-02-27T13:41:24.732Z,4.53
2023-02-27T13:48:41.850Z,4.52
2023-02-27T13:55:31.340Z,4.54
2023-02-27T14:02:13.655Z,4.70
2023-02-27T14:09:08.892Z,4.70
2023-02-27T14:16:00.465Z,4.54
2023-02-27T14:23:17.230Z,4.61
2023-02-27T14:30:08.035Z,4.46
2023-02-27T14:37:05.738Z,4.42
2023-02-27T14:43:56.018Z,4.39
2023-02-27T14:50:41.578Z,4.37
2023-02-27T14:57:28.947Z,4.31
2023-02-27T15:04:20.462Z,4.16
2023-02-27T15:11:03.245Z,4.10
2023-02-27T15:17:47.064Z,4.04
2023-02-27T15:24:48.801Z,3.88
2023-02-27T15:31:32.560Z,3.67
2023-02-27T15:38:31.552Z,3.48
2023-02-27T15:45:25.870Z,3.26
2023-02-27T15:52:23.606Z,3.03
2023-02-27T15:59:06.839Z,2.80
2023-02-27T16:05:53.236Z,2.60
2023-02-27T16:12:38.221Z,2.38
2023-02-27T16:19:30.164Z,2.07
2023-02-27T16:26:32.209Z,1.85
2023-02-27T16:33:23.483Z,1.67
2023-02-27T16:40:27.304Z,1.48
2023-02-27T16:47:10.099Z,1.30
2023-02-27T16:53:54.612Z,1.12
2023-02-27T17:00:36.943Z,0.95
2023-02-27T17:07:19.890Z,0.79
2023-02-27T17:14:02.362Z,0.63
2023-02-27T17:20:45.079Z,0.50
2023-02-27T17:27:27.640Z,0.31
2023-02-27T17:34:10.505Z,0.15
2023-02-27T17:40:52.751Z,-0.05
2023-02-27T17:47:35.753Z,-0.17
2023-02-27T17:54:18.169Z,-0.33
2023-02-27T18:01:08.723Z,-0.49
2023-02-27T18:07:51.368Z,-0.68
2023-02-27T18:14:34.814Z,-0.98
2023-02-27T18:21:21.521Z,-1.17
2023-02-27T18:28:06.381Z,-1.33
2023-02-27T18:34:49.053Z,-1.49
2023-02-27T18:41:31.884Z,-1.61
2023-02-27T18:48:16.025Z,-1.73
2023-02-27T18:55:01.121Z,-1.88
2023-02-27T19:01:46.236Z,-1.99
2023-02-27T19:08:29.734Z,-2.14
2023-02-27T19:15:12.254Z,-2.23
2023-02-27T19:21:57.350Z,-2.38
2023-02-27T19:28:42.789Z,-2.50
2023-02-27T19:35:28.481Z,-2.59
2023-02-27T19:42:11.646Z,-2.72
2023-02-27T19:48:58.001Z,-2.80
2023-02-27T19:55:40.533Z,-2.86
2023-02-27T20:02:23.455Z,-2.97
2023-02-27T20:09:05.913Z,-3.02
2023-02-27T20:15:59.953Z,-3.11
2023-02-27T20:22:44.347Z,-3.20
2023-02-27T20:29:28.365Z,-3.24
2023-02-27T20:36:11.907Z,-3.33
2023-02-27T20:42:54.551Z,-3.40
2023-02-27T20:49:38.107Z,-3.44
2023-02-27T20:56:25.128Z,-3.50
2023-02-27T21:03:10.269Z,-3.58
2023-02-27T21:09:52.640Z,-3.60
2023-02-27T21:16:38.293Z,-3.62
2023-02-27T21:23:20.732Z,-3.66
2023-02-27T21:30:06.092Z,-3.69
2023-02-27T21:36:49.482Z,-3.70
2023-02-27T21:43:31.945Z,-3.83
2023-02-27T21:50:14.338Z,-3.83
2023-02-27T21:56:59.120Z,-3.90
2023-02-27T22:03:47.391Z,-3.93
2023-02-27T22:10:29.730Z,-3.98
2023-02-27T22:17:12.089Z,-4.03
2023-02-27T22:23:58.000Z,-4.09
2023-02-27T22:30:40.358Z,-4.12
2023-02-27T22:37:23.577Z,-4.13
2023-02-27T22:44:07.658Z,-4.17
2023-02-27T22:51:07.708Z,-4.30
2023-02-27T22:57:51.870Z,-4.41
2023-02-27T23:04:34.175Z,-4.46
2023-02-27T23:11:19.135Z,-4.54
2023-02-27T23:18:01.382Z,-4.56
2023-02-27T23:24:43.682Z,-4.62
2023-02-27T23:31:26.110Z,-4.71
2023-02-27T23:38:08.753Z,-4.81
2023-02-27T23:45:06.236Z,-4.89
2023-02-27T23:51:48.578Z,-4.99
2023-02-27T23:58:30.976Z,-5.05
